createdAt,value
2019-06-08T00:01:57.512Z,71.80
2019-06-08T00:04:25.976Z,71.17
2019-06-08T00:06:54.470Z,70.45
2019-06-08T00:09:24.093Z,70.68
2019-06-08T00:11:52.655Z,69.85
2019-06-08T00:14:21.468Z,69.22
2019-06-08T00:16:50.096Z,70.28
2019-06-08T00:19:19.424Z,70.90
2019-06-08T00:21:47.901Z,70.56
2019-06-08T00:24:16.433Z,71.37
2019-06-08T00:26:46.042Z,72.59
2019-06-08T00:29:14.484Z,71.55
2019-06-08T00:31:42.919Z,70.39
2019-06-08T00:34:11.385Z,71.63
2019-06-08T00:36:39.803Z,71.81
2019-06-08T00:39:09.645Z,70.31
2019-06-08T00:41:38.685Z,70.50
2019-06-08T00:44:07.196Z,70.41
2019-06-08T00:46:35.683Z,71.29
2019-06-08T00:49:04.202Z,71.61
2019-06-08T00:51:32.641Z,71.44
2019-06-08T00:54:01.203Z,69.89
2019-06-08T00:56:29.984Z,71.06
2019-06-08T00:58:58.470Z,71.77
2019-06-08T01:01:28.277Z,71.51
2019-06-08T01:03:56.948Z,72.14
2019-06-08T01:06:25.379Z,71.26
2019-06-08T01:08:53.804Z,72.26
2019-06-08T01:11:22.532Z,71.97
2019-06-08T01:13:51.074Z,71.75
2019-06-08T01:16:20.827Z,72.28
2019-06-08T01:18:49.433Z,73.32
2019-06-08T01:21:19.288Z,73.84
2019-06-08T01:23:47.875Z,73.51
2019-06-08T01:26:16.343Z,73.46
2019-06-08T01:28:44.776Z,74.26
2019-06-08T01:31:13.210Z,73.64
2019-06-08T01:33:41.668Z,73.94
2019-06-08T01:36:10.166Z,72.91
2019-06-08T01:38:38.593Z,71.39
2019-06-08T01:41:07.055Z,71.00
2019-06-08T01:43:35.484Z,70.51
2019-06-08T01:46:03.986Z,69.84
2019-06-08T01:48:32.536Z,69.93
2019-06-08T01:51:00.982Z,69.41
2019-06-08T01:53:29.415Z,69.43
2019-06-08T01:55:57.856Z,68.27
2019-06-08T01:58:27.429Z,68.74
2019-06-08T02:00:55.959Z,67.29
2019-06-08T02:03:24.508Z,67.39
2019-06-08T02:05:52.933Z,67.67
2019-06-08T02:08:21.367Z,66.04
2019-06-08T02:10:49.910Z,66.23
2019-06-08T02:13:18.357Z,65.09
2019-06-08T02:15:46.846Z,65.18
2019-06-08T02:18:15.313Z,63.82
2019-06-08T02:20:43.809Z,64.02
2019-06-08T02:23:12.233Z,64.71
2019-06-08T02:25:40.713Z,65.58
2019-06-08T02:28:09.193Z,65.94
2019-06-08T02:30:39.757Z,66.74
2019-06-08T02:33:07.880Z,66.92
2019-06-08T02:35:37.857Z,66.50
2019-06-08T02:38:06.752Z,67.42
2019-06-08T02:40:36.828Z,67.07
2019-06-08T02:43:05.613Z,68.45
2019-06-08T02:45:36.534Z,67.70
2019-06-08T02:48:05.291Z,68.48
2019-06-08T02:50:48.916Z,68.22
2019-06-08T02:53:18.881Z,67.93
2019-06-08T02:55:48.942Z,68.10
2019-06-08T02:58:19.025Z,66.93
2019-06-08T03:00:48.928Z,68.08
2019-06-08T03:03:17.513Z,66.98
2019-06-08T03:05:47.521Z,67.53
2019-06-08T03:08:16.037Z,68.44
2019-06-08T03:10:44.613Z,67.57
2019-06-08T03:13:13.183Z,67.03
2019-06-08T03:15:43.765Z,67.50
2019-06-08T03:18:11.808Z,67.32
2019-06-08T03:20:41.889Z,69.08
2019-06-08T03:23:10.421Z,68.12
2019-06-08T03:25:47.254Z,68.07
2019-06-08T03:28:09.117Z,69.22
2019-06-08T03:30:44.633Z,69.12
2019-06-08T03:33:07.793Z,68.49
2019-06-08T03:35:46.565Z,68.41
2019-06-08T03:38:06.518Z,67.77
2019-06-08T03:40:35.930Z,67.39
2019-06-08T03:43:04.579Z,68.35
2019-06-08T03:45:34.299Z,68.36
2019-06-08T03:48:02.838Z,68.13
2019-06-08T03:50:31.277Z,67.80
2019-06-08T03:52:59.719Z,69.24
2019-06-08T03:55:28.151Z,67.72
2019-06-08T03:57:56.581Z,67.51
2019-06-08T04:00:25.255Z,66.73
2019-06-08T04:02:53.699Z,66.25
2019-06-08T04:05:22.277Z,66.71
2019-06-08T04:07:50.728Z,66.04
2019-06-08T04:10:19.232Z,66.34
2019-06-08T04:12:47.673Z,64.53
2019-06-08T04:15:16.223Z,64.72
2019-06-08T04:17:46.233Z,64.11
2019-06-08T04:20:15.196Z,63.84
2019-06-08T04:22:47.271Z,63.62
2019-06-08T04:25:16.304Z,64.95
2019-06-08T04:27:45.279Z,64.22
2019-06-08T04:30:15.623Z,64.35
2019-06-08T04:32:44.900Z,61.26
2019-06-08T04:35:13.794Z,61.32
2019-06-08T04:37:43.088Z,62.70
2019-06-08T04:40:12.946Z,62.32
2019-06-08T04:42:42.304Z,61.33
2019-06-08T04:45:11.734Z,59.55
2019-06-08T04:47:40.984Z,59.11
2019-06-08T04:50:22.713Z,58.28
2019-06-08T04:52:42.589Z,57.69
2019-06-08T04:55:11.398Z,55.69
2019-06-08T04:57:41.857Z,55.29
2019-06-08T05:00:12.703Z,54.49
2019-06-08T05:02:42.222Z,54.71
2019-06-08T05:05:11.480Z,53.94
2019-06-08T05:07:41.550Z,52.71
2019-06-08T05:10:10.536Z,53.50
2019-06-08T05:12:39.313Z,54.08
2019-06-08T05:15:10.141Z,53.07
2019-06-08T05:17:39.353Z,53.22
2019-06-08T05:20:08.227Z,52.81
2019-06-08T05:22:36.827Z,53.67
2019-06-08T05:25:06.411Z,53.62
2019-06-08T05:27:34.830Z,54.96
2019-06-08T05:30:08.429Z,56.58
2019-06-08T05:32:33.774Z,57.48
2019-06-08T05:35:02.230Z,57.70
2019-06-08T05:37:30.782Z,58.36
2019-06-08T05:39:59.289Z,58.67
2019-06-08T05:42:27.727Z,59.45
2019-06-08T05:44:56.205Z,60.03
2019-06-08T05:47:24.632Z,58.94
2019-06-08T05:49:53.129Z,57.47
2019-06-08T05:52:21.668Z,57.53
2019-06-08T05:54:50.285Z,57.59
2019-06-08T05:57:18.721Z,57.85
2019-06-08T05:59:48.193Z,57.51
2019-06-08T06:02:16.668Z,57.28
2019-06-08T06:04:46.322Z,56.41
2019-06-08T06:07:14.840Z,56.79
2019-06-08T06:09:45.029Z,56.07
2019-06-08T06:12:13.694Z,56.72
2019-06-08T06:14:42.791Z,54.68
2019-06-08T06:17:11.337Z,54.37
2019-06-08T06:19:41.040Z,54.22
2019-06-08T06:22:09.597Z,54.34
2019-06-08T06:24:38.024Z,55.24
2019-06-08T06:27:06.525Z,54.25
2019-06-08T06:29:34.992Z,53.32
2019-06-08T06:32:03.525Z,53.25
2019-06-08T06:34:32.016Z,52.46
2019-06-08T06:37:00.483Z,52.60
2019-06-08T06:39:28.904Z,53.87
2019-06-08T06:41:57.341Z,55.10
2019-06-08T06:44:25.895Z,55.40
2019-06-08T06:46:54.314Z,55.16
2019-06-08T06:49:22.748Z,54.74
2019-06-08T06:51:52.570Z,54.95
2019-06-08T06:54:21.187Z,54.09
2019-06-08T06:56:49.652Z,55.61
2019-06-08T06:59:18.096Z,54.89
2019-06-08T07:01:47.553Z,54.53
2019-06-08T07:04:16.082Z,53.68
2019-06-08T07:06:46.112Z,53.32
2019-06-08T07:09:14.658Z,53.64
2019-06-08T07:11:44.408Z,54.38
2019-06-08T07:14:12.933Z,54.67
2019-06-08T07:16:41.416Z,54.96
2019-06-08T07:19:09.804Z,55.14
2019-06-08T07:21:41.888Z,54.57
2019-06-08T07:24:09.071Z,53.93
2019-06-08T07:26:37.570Z,53.59
2019-06-08T07:29:06.132Z,53.83
2019-06-08T07:31:34.562Z,55.23
2019-06-08T07:34:03.007Z,56.63
2019-06-08T07:36:31.544Z,56.87
2019-06-08T07:38:59.967Z,56.39
2019-06-08T07:41:28.461Z,56.90
2019-06-08T07:43:57.002Z,56.84
2019-06-08T07:46:25.460Z,56.49
2019-06-08T07:48:54.433Z,57.19
2019-06-08T07:51:24.005Z,58.19
2019-06-08T07:53:53.556Z,58.31
2019-06-08T07:56:22.041Z,57.73
2019-06-08T07:58:51.568Z,58.78
2019-06-08T08:01:35.403Z,59.32
2019-06-08T08:03:52.069Z,58.55
2019-06-08T08:06:20.690Z,59.67
2019-06-08T08:08:50.514Z,58.53
2019-06-08T08:11:19.136Z,57.61
2019-06-08T08:13:50.156Z,57.42
2019-06-08T08:16:17.828Z,57.60
2019-06-08T08:18:46.251Z,57.47
2019-06-08T08:21:22.213Z,58.26
2019-06-08T08:23:44.964Z,58.15
2019-06-08T08:26:13.412Z,57.65
2019-06-08T08:28:41.872Z,58.84
2019-06-08T08:31:11.388Z,59.40
2019-06-08T08:33:40.601Z,57.70
2019-06-08T08:36:09.208Z,58.81
2019-06-08T08:38:38.149Z,59.10
2019-06-08T08:41:10.763Z,60.28
2019-06-08T08:43:38.171Z,60.66
2019-06-08T08:46:07.713Z,60.82
2019-06-08T08:48:37.713Z,59.99
2019-06-08T08:51:08.600Z,60.50
2019-06-08T08:53:37.501Z,59.37
2019-06-08T08:56:07.303Z,59.58
2019-06-08T08:58:38.080Z,59.19
2019-06-08T09:01:08.145Z,59.43
2019-06-08T09:03:39.328Z,60.16
2019-06-08T09:06:08.668Z,59.94
2019-06-08T09:08:37.675Z,59.84
2019-06-08T09:11:08.237Z,60.39
2019-06-08T09:13:37.736Z,60.12
2019-06-08T09:16:08.044Z,59.27
2019-06-08T09:18:37.516Z,60.22
2019-06-08T09:21:08.459Z,59.39
2019-06-08T09:23:37.838Z,58.92
2019-06-08T09:26:12.171Z,60.20
2019-06-08T09:28:38.880Z,60.83
2019-06-08T09:31:08.717Z,60.21
2019-06-08T09:33:38.856Z,59.87
2019-06-08T09:36:08.207Z,60.45
2019-06-08T09:38:38.656Z,59.60
2019-06-08T09:41:09.004Z,58.98
2019-06-08T09:43:38.851Z,58.59
2019-06-08T09:46:09.160Z,58.16
2019-06-08T09:48:38.258Z,57.69
2019-06-08T09:51:09.311Z,57.11
2019-06-08T09:53:41.215Z,58.50
2019-06-08T09:56:09.665Z,59.25
2019-06-08T09:58:39.188Z,59.02
2019-06-08T10:01:11.275Z,58.29
2019-06-08T10:03:39.154Z,58.31
2019-06-08T10:06:11.547Z,58.40
2019-06-08T10:08:38.837Z,59.25
2019-06-08T10:11:09.634Z,58.76
2019-06-08T10:13:39.174Z,59.16
2019-06-08T10:16:10.381Z,59.08
2019-06-08T10:18:38.599Z,58.74
2019-06-08T10:21:09.416Z,58.16
2019-06-08T10:23:38.627Z,58.54
2019-06-08T10:26:07.591Z,59.21
2019-06-08T10:28:38.879Z,58.86
2019-06-08T10:31:06.932Z,58.68
2019-06-08T10:33:37.770Z,57.47
2019-06-08T10:36:09.426Z,57.61
2019-06-08T10:38:40.908Z,56.81
2019-06-08T10:41:13.138Z,57.11
2019-06-08T10:43:38.538Z,54.48
2019-06-08T10:46:12.016Z,54.07
2019-06-08T10:48:37.815Z,55.11
2019-06-08T10:51:10.482Z,55.26
2019-06-08T10:53:46.580Z,54.30
2019-06-08T10:56:11.759Z,53.64
2019-06-08T10:58:37.240Z,54.32
2019-06-08T11:01:10.581Z,53.07
2019-06-08T11:03:38.682Z,52.84
2019-06-08T11:06:07.560Z,54.23
2019-06-08T11:08:38.860Z,53.56
2019-06-08T11:11:09.804Z,54.18
2019-06-08T11:13:37.701Z,53.63
2019-06-08T11:16:10.202Z,51.67
2019-06-08T11:18:36.441Z,51.61
2019-06-08T11:21:07.242Z,50.64
2019-06-08T11:23:35.204Z,50.04
2019-06-08T11:26:12.027Z,51.06
2019-06-08T11:28:33.874Z,50.88
2019-06-08T11:31:03.840Z,50.20
2019-06-08T11:33:32.502Z,50.17
2019-06-08T11:36:02.948Z,51.99
2019-06-08T11:38:31.127Z,50.77
2019-06-08T11:41:02.104Z,51.30
2019-06-08T11:43:29.729Z,50.24
2019-06-08T11:45:58.443Z,49.86
2019-06-08T11:48:28.548Z,50.16
2019-06-08T11:50:58.556Z,50.16
2019-06-08T11:53:28.803Z,49.96
2019-06-08T11:55:58.653Z,49.80
2019-06-08T11:58:30.822Z,50.86
2019-06-08T12:01:04.613Z,50.06
2019-06-08T12:03:32.589Z,50.16
2019-06-08T12:06:02.199Z,50.49
2019-06-08T12:08:30.735Z,48.59
2019-06-08T12:11:01.985Z,48.68
2019-06-08T12:13:29.382Z,46.99
2019-06-08T12:15:58.866Z,48.31
2019-06-08T12:18:27.461Z,49.47
2019-06-08T12:20:58.331Z,47.63
2019-06-08T12:23:26.079Z,47.83
2019-06-08T12:25:54.508Z,47.66
2019-06-08T12:28:23.182Z,47.29
2019-06-08T12:30:51.704Z,46.83
2019-06-08T12:33:22.825Z,48.07
2019-06-08T12:35:50.474Z,47.95
2019-06-08T12:38:19.264Z,47.22
2019-06-08T12:40:48.541Z,47.39
2019-06-08T12:43:18.903Z,46.66
2019-06-08T12:45:47.426Z,46.93
2019-06-08T12:48:20.466Z,46.01
2019-06-08T12:50:47.823Z,45.92
2019-06-08T12:53:20.752Z,46.16
2019-06-08T12:55:47.568Z,46.91
2019-06-08T12:58:17.192Z,46.08
2019-06-08T13:00:48.311Z,46.98
2019-06-08T13:03:16.756Z,46.08
2019-06-08T13:05:45.462Z,46.13
2019-06-08T13:08:15.227Z,45.58
2019-06-08T13:10:44.542Z,45.62
2019-06-08T13:13:14.184Z,45.24
2019-06-08T13:15:42.911Z,47.46
2019-06-08T13:18:12.297Z,47.43
2019-06-08T13:20:41.611Z,47.47
2019-06-08T13:23:11.509Z,47.65
2019-06-08T13:25:43.782Z,46.18
2019-06-08T13:28:15.172Z,45.27
2019-06-08T13:30:40.573Z,45.81
2019-06-08T13:33:09.936Z,46.92
2019-06-08T13:35:39.606Z,47.26
2019-06-08T13:38:08.704Z,46.73
2019-06-08T13:40:40.082Z,47.56
2019-06-08T13:43:08.117Z,46.67
2019-06-08T13:45:39.115Z,45.93
2019-06-08T13:48:08.956Z,46.15
2019-06-08T13:50:37.329Z,46.36
2019-06-08T13:53:05.895Z,45.17
2019-06-08T13:55:48.666Z,44.58
2019-06-08T13:58:04.665Z,45.85
2019-06-08T14:00:35.133Z,46.56
2019-06-08T14:03:08.245Z,45.84
2019-06-08T14:05:38.536Z,45.68
2019-06-08T14:08:10.595Z,44.65
2019-06-08T14:10:41.143Z,45.74
2019-06-08T14:13:09.633Z,45.02
2019-06-08T14:15:38.274Z,45.06
2019-06-08T14:18:08.864Z,45.47
2019-06-08T14:20:38.632Z,46.40
2019-06-08T14:23:09.202Z,45.66
2019-06-08T14:25:50.545Z,46.43
2019-06-08T14:28:11.880Z,47.25
2019-06-08T14:30:40.371Z,46.17
2019-06-08T14:33:08.823Z,47.20
2019-06-08T14:35:37.395Z,46.36
2019-06-08T14:38:05.894Z,45.35
2019-06-08T14:40:34.434Z,44.81
2019-06-08T14:43:02.870Z,43.69
2019-06-08T14:45:31.367Z,44.92
2019-06-08T14:47:59.904Z,46.13
2019-06-08T14:50:30.686Z,46.79
2019-06-08T14:52:59.108Z,46.46
2019-06-08T14:55:33.202Z,45.43
2019-06-08T14:57:58.250Z,43.14
2019-06-08T15:00:27.770Z,44.18
2019-06-08T15:02:59.052Z,43.82
2019-06-08T15:05:30.490Z,42.92
2019-06-08T15:07:58.213Z,44.57
2019-06-08T15:10:29.388Z,45.45
2019-06-08T15:12:57.848Z,45.84
2019-06-08T15:15:28.845Z,44.15
2019-06-08T15:17:58.294Z,43.90
2019-06-08T15:20:26.840Z,44.13
2019-06-08T15:22:57.695Z,44.38
2019-06-08T15:25:26.666Z,45.56
2019-06-08T15:28:00.647Z,46.24
2019-06-08T15:30:29.377Z,45.93
2019-06-08T15:32:58.439Z,46.71
2019-06-08T15:35:27.350Z,46.10
2019-06-08T15:37:58.209Z,45.66
2019-06-08T15:40:26.210Z,45.80
2019-06-08T15:42:54.719Z,44.99
2019-06-08T15:45:24.248Z,46.37
2019-06-08T15:47:52.903Z,46.39
2019-06-08T15:50:22.253Z,47.14
2019-06-08T15:52:50.799Z,47.19
2019-06-08T15:55:19.737Z,46.79
2019-06-08T15:57:48.300Z,47.21
2019-06-08T16:00:18.440Z,48.05
2019-06-08T16:02:47.181Z,46.15
2019-06-08T16:05:15.753Z,45.91
2019-06-08T16:07:44.180Z,45.22
2019-06-08T16:10:12.975Z,45.23
2019-06-08T16:12:41.398Z,45.81
2019-06-08T16:15:10.265Z,45.30
2019-06-08T16:17:38.751Z,45.64
2019-06-08T16:20:07.732Z,46.35
2019-06-08T16:22:36.162Z,46.75
2019-06-08T16:25:06.238Z,47.73
2019-06-08T16:27:54.010Z,47.32
2019-06-08T16:30:22.477Z,45.95
2019-06-08T16:32:50.911Z,45.98
2019-06-08T16:35:19.350Z,46.41
2019-06-08T16:37:47.802Z,45.25
2019-06-08T16:40:16.299Z,45.94
2019-06-08T16:42:44.732Z,46.27
2019-06-08T16:45:13.333Z,46.05
2019-06-08T16:47:43.722Z,46.12
2019-06-08T16:50:23.978Z,46.52
2019-06-08T16:52:42.230Z,46.75
2019-06-08T16:55:10.825Z,46.51
2019-06-08T16:57:41.063Z,46.97
2019-06-08T17:02:40.220Z,43.78
2019-06-08T17:05:09.288Z,45.14
2019-06-08T17:07:37.891Z,44.77
2019-06-08T17:10:07.697Z,45.25
2019-06-08T17:12:37.019Z,45.18
2019-06-08T17:15:07.108Z,45.69
2019-06-08T17:17:36.572Z,45.36
2019-06-08T17:20:06.294Z,46.92
2019-06-08T17:22:34.834Z,47.14
2019-06-08T17:25:07.965Z,47.48
2019-06-08T17:27:34.677Z,47.49
2019-06-08T17:30:08.284Z,47.38
2019-06-08T17:32:34.768Z,48.03
2019-06-08T17:35:05.616Z,50.03
2019-06-08T17:37:34.070Z,50.08
2019-06-08T17:40:02.570Z,49.43
2019-06-08T17:42:32.060Z,49.46
2019-06-08T17:45:00.678Z,49.40
2019-06-08T17:47:29.152Z,49.62
2019-06-08T17:49:57.592Z,48.69
2019-06-08T17:52:28.072Z,49.37
2019-06-08T17:54:56.172Z,49.24
2019-06-08T17:57:24.683Z,48.82
2019-06-08T17:59:53.417Z,48.90
2019-06-08T18:02:27.987Z,49.01
2019-06-08T18:04:52.078Z,49.25
2019-06-08T18:07:20.553Z,50.13
2019-06-08T18:09:49.056Z,50.61
2019-06-08T18:12:18.619Z,49.78
2019-06-08T18:14:47.942Z,49.80
2019-06-08T18:17:17.780Z,50.48
2019-06-08T18:19:49.370Z,51.08
2019-06-08T18:22:18.696Z,50.74
2019-06-08T18:24:47.914Z,51.49
2019-06-08T18:27:18.085Z,52.72
2019-06-08T18:29:48.778Z,52.69
2019-06-08T18:32:18.143Z,53.14
2019-06-08T18:34:48.022Z,51.85
2019-06-08T18:37:18.022Z,51.41
2019-06-08T18:39:49.074Z,51.50
2019-06-08T18:42:17.943Z,51.98
2019-06-08T18:44:48.577Z,52.44
2019-06-08T18:47:17.773Z,52.91
2019-06-08T18:49:48.435Z,53.32
2019-06-08T18:52:17.644Z,53.64
2019-06-08T18:54:49.225Z,52.62
2019-06-08T18:57:17.616Z,54.61
2019-06-08T18:59:48.676Z,53.67
2019-06-08T19:02:18.016Z,55.12
2019-06-08T19:04:47.783Z,55.46
2019-06-08T19:07:17.560Z,54.77
2019-06-08T19:09:48.046Z,55.96
2019-06-08T19:12:17.197Z,56.67
2019-06-08T19:14:47.548Z,56.31
2019-06-08T19:17:17.437Z,56.53
2019-06-08T19:19:48.551Z,57.08
2019-06-08T19:22:18.788Z,57.66
2019-06-08T19:24:49.439Z,58.12
2019-06-08T19:27:18.369Z,58.56
2019-06-08T19:29:49.949Z,59.29
2019-06-08T19:32:17.186Z,59.58
2019-06-08T19:34:52.243Z,59.93
2019-06-08T19:37:17.253Z,59.75
2019-06-08T19:39:47.686Z,61.24
2019-06-08T19:42:17.540Z,64.12
2019-06-08T19:44:56.819Z,66.05
2019-06-08T19:47:17.604Z,67.16
2019-06-08T19:49:48.331Z,67.57
2019-06-08T19:52:18.274Z,67.25
2019-06-08T19:54:51.920Z,67.31
2019-06-08T19:57:17.528Z,68.69
2019-06-08T19:59:46.131Z,68.39
2019-06-08T20:02:14.557Z,69.51
2019-06-08T20:04:43.054Z,70.35
2019-06-08T20:07:11.540Z,71.65
2019-06-08T20:09:41.067Z,71.10
2019-06-08T20:12:09.565Z,71.70
2019-06-08T20:14:38.016Z,72.39
2019-06-08T20:17:08.089Z,74.57
2019-06-08T20:19:37.334Z,74.79
2019-06-08T20:22:07.497Z,74.75
2019-06-08T20:24:37.803Z,74.93
2019-06-08T20:27:07.745Z,74.88
2019-06-08T20:29:38.149Z,74.86
2019-06-08T20:32:08.435Z,75.62
2019-06-08T20:34:38.170Z,74.98
2019-06-08T20:37:08.100Z,76.17
2019-06-08T20:39:38.247Z,76.50
2019-06-08T20:42:11.651Z,76.63
2019-06-08T20:44:38.287Z,76.48
2019-06-08T20:47:08.487Z,75.78
2019-06-08T20:49:37.360Z,76.45
2019-06-08T20:52:08.548Z,75.69
2019-06-08T20:54:36.924Z,76.35
2019-06-08T20:57:07.559Z,76.00
2019-06-08T20:59:37.645Z,77.25
2019-06-08T21:02:08.454Z,76.92
2019-06-08T21:04:38.316Z,76.82
2019-06-08T21:07:08.140Z,77.60
2019-06-08T21:09:37.095Z,77.11
2019-06-08T21:12:05.632Z,78.55
2019-06-08T21:14:34.106Z,79.27
2019-06-08T21:17:02.542Z,80.01
2019-06-08T21:19:30.963Z,81.91
2019-06-08T21:21:59.644Z,81.82
2019-06-08T21:24:28.295Z,81.40
2019-06-08T21:27:00.446Z,81.77
2019-06-08T21:29:38.861Z,81.61
2019-06-08T21:32:02.091Z,81.97
2019-06-08T21:34:27.571Z,82.06
2019-06-08T21:37:00.075Z,83.22
2019-06-08T21:39:28.215Z,82.20
2019-06-08T21:42:01.316Z,82.00
2019-06-08T21:44:27.847Z,82.29
2019-06-08T21:46:59.894Z,82.37
2019-06-08T21:49:27.679Z,81.02
2019-06-08T21:51:59.606Z,82.06
2019-06-08T21:54:27.237Z,82.23
2019-06-08T21:56:58.951Z,83.23
2019-06-08T21:59:25.973Z,83.27
2019-06-08T22:01:56.902Z,82.69
2019-06-08T22:04:24.700Z,82.60
2019-06-08T22:06:54.113Z,82.94
2019-06-08T22:09:22.711Z,82.94
2019-06-08T22:11:52.491Z,82.48
2019-06-08T22:14:21.081Z,83.01
2019-06-08T22:16:50.812Z,83.36
2019-06-08T22:19:19.733Z,84.94
2019-06-08T22:21:48.349Z,84.62
2019-06-08T22:24:17.209Z,85.62
2019-06-08T22:26:45.675Z,85.88
2019-06-08T22:29:14.135Z,87.06
2019-06-08T22:31:42.566Z,87.39
2019-06-08T22:34:10.996Z,86.89
2019-06-08T22:36:39.531Z,87.14
2019-06-08T22:39:08.349Z,87.32
2019-06-08T22:41:37.337Z,86.82
2019-06-08T22:44:08.110Z,85.85
2019-06-08T22:46:37.554Z,85.77
2019-06-08T22:49:08.118Z,85.54
2019-06-08T22:51:38.289Z,85.42
2019-06-08T22:54:08.004Z,85.27
2019-06-08T22:56:37.191Z,85.91
2019-06-08T22:59:09.006Z,85.68
2019-06-08T23:01:38.197Z,85.71
2019-06-08T23:04:08.920Z,86.05
2019-06-08T23:06:38.611Z,87.24
2019-06-08T23:09:08.677Z,86.79
2019-06-08T23:11:37.648Z,86.56
2019-06-08T23:14:12.732Z,86.43
2019-06-08T23:16:36.592Z,87.00
2019-06-08T23:19:05.276Z,87.36
2019-06-08T23:21:33.769Z,86.94
2019-06-08T23:24:02.876Z,87.64
2019-06-08T23:26:32.500Z,87.94
2019-06-08T23:29:02.340Z,87.34
2019-06-08T23:31:30.830Z,87.25
2019-06-08T23:34:00.288Z,87.98
2019-06-08T23:36:46.882Z,87.65
2019-06-08T23:38:59.576Z,87.83
2019-06-08T23:41:28.073Z,87.80
2019-06-08T23:43:57.487Z,87.78
2019-06-08T23:46:27.362Z,87.65
2019-06-08T23:48:58.965Z,87.33
2019-06-08T23:51:27.530Z,86.90
2019-06-08T23:53:58.316Z,85.99
2019-06-08T23:56:27.707Z,86.50
2019-06-08T23:58:56.404Z,85.02
